createdAt,value
2023-03-21T00:02:24.048Z,99455.47
2023-03-21T00:06:25.555Z,99447.22
2023-03-21T00:10:39.898Z,99441.88
2023-03-21T00:14:46.572Z,99448.16
2023-03-21T00:18:50.402Z,99464.97
2023-03-21T00:22:51.826Z,99466.50
2023-03-21T00:26:53.904Z,99460.13
2023-03-21T00:30:59.406Z,99459.69
2023-03-21T00:35:23.335Z,99460.69
2023-03-21T00:39:22.238Z,99452.28
2023-03-21T00:43:23.714Z,99449.84
2023-03-21T00:47:26.623Z,99445.22
2023-03-21T00:51:28.089Z,99453.19
2023-03-21T00:55:29.560Z,99447.19
2023-03-21T00:59:31.073Z,99438.97
2023-03-21T01:03:34.560Z,99438.03
2023-03-21T01:07:36.000Z,99441.81
2023-03-21T01:11:37.470Z,99440.16
2023-03-21T01:15:44.276Z,99435.91
2023-03-21T01:19:51.943Z,99433.34
2023-03-21T01:23:53.897Z,99432.88
2023-03-21T01:27:55.310Z,99435.78
2023-03-21T01:31:56.785Z,99439.56
2023-03-21T01:36:10.354Z,99443.34
2023-03-21T01:40:19.064Z,99441.22
2023-03-21T01:44:20.476Z,99441.22
2023-03-21T01:48:24.050Z,99440.16
2023-03-21T01:52:37.116Z,99444.19
2023-03-21T01:56:40.273Z,99439.84
2023-03-21T02:00:41.896Z,99451.50
2023-03-21T02:04:43.742Z,99434.72
2023-03-21T02:08:46.560Z,99424.72
2023-03-21T02:12:48.290Z,99431.25
2023-03-21T02:16:56.128Z,99439.41
2023-03-21T02:21:18.887Z,99431.75
2023-03-21T02:25:41.119Z,99430.00
2023-03-21T02:30:26.435Z,99428.03
2023-03-21T02:34:40.082Z,99425.13
2023-03-21T02:38:52.533Z,99432.22
2023-03-21T02:43:04.278Z,99425.56
2023-03-21T02:47:11.833Z,99427.78
2023-03-21T02:51:18.682Z,99423.91
2023-03-21T02:55:24.974Z,99425.25
2023-03-21T02:59:27.431Z,99421.16
2023-03-21T03:03:34.534Z,99421.19
2023-03-21T03:07:42.381Z,99420.88
2023-03-21T03:11:46.645Z,99412.34
2023-03-21T03:15:58.057Z,99415.09
2023-03-21T03:20:17.195Z,99418.03
2023-03-21T03:24:26.459Z,99414.72
2023-03-21T03:28:33.153Z,99411.38
2023-03-21T03:32:38.945Z,99412.41
2023-03-21T03:36:42.965Z,99408.66
2023-03-21T03:40:48.759Z,99409.28
2023-03-21T03:44:51.978Z,99408.84
2023-03-21T03:48:57.691Z,99413.81
2023-03-21T03:53:09.825Z,99410.44
2023-03-21T03:57:17.892Z,99411.69
2023-03-21T04:01:20.642Z,99414.22
2023-03-21T04:05:22.064Z,99416.03
2023-03-21T04:09:37.265Z,99419.84
2023-03-21T04:13:44.397Z,99410.81
2023-03-21T04:17:47.135Z,99422.09
2023-03-21T04:21:48.601Z,99418.75
2023-03-21T04:25:56.345Z,99421.28
2023-03-21T04:29:58.476Z,99414.56
2023-03-21T04:34:03.537Z,99418.31
2023-03-21T04:38:04.998Z,99426.72
2023-03-21T04:42:06.411Z,99422.91
2023-03-21T04:46:07.856Z,99418.94
2023-03-21T04:50:12.007Z,99415.06
2023-03-21T04:58:15.080Z,99417.09
2023-03-21T05:02:16.536Z,99419.53
2023-03-21T05:06:19.274Z,99420.31
2023-03-21T05:10:20.677Z,99413.22
2023-03-21T05:14:24.728Z,99416.81
2023-03-21T05:18:26.304Z,99415.34
2023-03-21T05:22:29.068Z,99417.44
2023-03-21T05:26:30.449Z,99414.09
2023-03-21T05:30:33.518Z,99413.50
2023-03-21T05:34:34.976Z,99414.50
2023-03-21T05:38:38.803Z,99414.88
2023-03-21T05:42:40.227Z,99411.56
2023-03-21T05:46:42.277Z,99421.00
2023-03-21T05:50:43.671Z,99414.16
2023-03-21T05:54:46.503Z,99419.22
2023-03-21T05:58:47.924Z,99406.31
2023-03-21T06:02:49.422Z,99413.81
2023-03-21T06:06:51.156Z,99415.94
2023-03-21T06:10:53.907Z,99417.88
2023-03-21T06:14:55.420Z,99421.56
2023-03-21T06:18:56.928Z,99425.22
2023-03-21T06:22:58.464Z,99429.72
2023-03-21T06:27:03.520Z,99430.72
2023-03-21T06:31:05.873Z,99438.84
2023-03-21T06:35:07.872Z,99443.00
2023-03-21T06:39:09.275Z,99447.09
2023-03-21T06:43:12.014Z,99446.19
2023-03-21T06:47:13.464Z,99439.94
2023-03-21T06:51:16.028Z,99438.81
2023-03-21T06:55:17.562Z,99448.03
2023-03-21T06:59:20.349Z,99447.72
2023-03-21T07:03:21.768Z,99445.63
2023-03-21T07:07:25.299Z,99449.22
2023-03-21T07:11:26.702Z,99458.47
2023-03-21T07:15:29.454Z,99450.28
2023-03-21T07:19:30.905Z,99468.25
2023-03-21T07:23:32.444Z,99462.41
2023-03-21T07:27:33.869Z,99455.91
2023-03-21T07:31:36.641Z,99460.00
2023-03-21T07:35:38.979Z,99456.59
2023-03-21T07:39:40.573Z,99456.66
2023-03-21T07:43:41.984Z,99458.59
2023-03-21T07:47:44.805Z,99459.50
2023-03-21T07:51:46.239Z,99467.31
2023-03-21T07:55:50.632Z,99451.00
2023-03-21T07:59:52.041Z,99446.25
2023-03-21T08:03:55.024Z,99458.44
2023-03-21T08:07:56.840Z,99454.53
2023-03-21T08:11:58.249Z,99449.13
2023-03-21T08:15:59.797Z,99447.78
2023-03-21T08:20:02.580Z,99450.78
2023-03-21T08:24:04.317Z,99457.38
2023-03-21T08:28:05.758Z,99450.13
2023-03-21T08:32:07.226Z,99463.44
2023-03-21T08:36:10.857Z,99449.91
2023-03-21T08:40:14.523Z,99458.81
2023-03-21T08:44:15.990Z,99448.38
2023-03-21T08:48:17.604Z,99452.63
2023-03-21T08:52:20.417Z,99442.16
2023-03-21T08:56:21.855Z,99445.78
2023-03-21T09:00:23.783Z,99445.78
2023-03-21T09:04:25.321Z,99448.91
2023-03-21T09:08:28.154Z,99445.00
2023-03-21T09:12:29.749Z,99446.72
2023-03-21T09:16:31.496Z,99451.22
2023-03-21T09:20:33.057Z,99441.66
2023-03-21T09:24:35.904Z,99452.47
2023-03-21T09:28:37.320Z,99457.72
2023-03-21T09:32:38.847Z,99453.00
2023-03-21T09:36:40.270Z,99448.03
2023-03-21T09:40:56.928Z,99449.22
2023-03-21T09:45:07.945Z,99436.25
2023-03-21T09:49:16.441Z,99434.88
2023-03-21T09:53:22.613Z,99426.88
2023-03-21T09:57:31.501Z,99432.72
2023-03-21T10:01:33.789Z,99430.41
2023-03-21T10:05:38.561Z,99417.94
2023-03-21T10:09:41.415Z,99423.56
2023-03-21T10:13:49.243Z,99415.66
2023-03-21T10:17:59.628Z,99416.50
2023-03-21T10:22:03.469Z,99406.34
2023-03-21T10:26:06.961Z,99404.06
2023-03-21T10:30:20.175Z,99408.00
2023-03-21T10:34:29.832Z,99405.44
2023-03-21T10:38:31.345Z,99401.31
2023-03-21T10:42:33.691Z,99399.88
2023-03-21T10:46:36.766Z,99397.50
2023-03-21T10:50:38.493Z,99401.78
2023-03-21T10:54:40.187Z,99405.56
2023-03-21T10:58:44.684Z,99386.16
2023-03-21T11:02:50.845Z,99389.50
2023-03-21T11:06:54.195Z,99389.53
2023-03-21T11:11:01.406Z,99386.97
2023-03-21T11:15:26.244Z,99380.69
2023-03-21T11:19:32.811Z,99380.69
2023-03-21T11:23:38.446Z,99383.03
2023-03-21T11:27:47.656Z,99373.63
2023-03-21T11:31:49.225Z,99372.19
2023-03-21T11:36:03.766Z,99366.63
2023-03-21T11:40:19.625Z,99359.13
2023-03-21T11:44:27.502Z,99355.03
2023-03-21T11:48:29.077Z,99361.22
2023-03-21T11:52:38.889Z,99340.47
2023-03-21T11:56:44.102Z,99339.81
2023-03-21T12:00:52.027Z,99334.69
2023-03-21T12:04:57.091Z,99328.91
2023-03-21T12:09:09.235Z,99329.69
2023-03-21T12:13:28.192Z,99328.06
2023-03-21T12:17:48.412Z,99313.63
2023-03-21T12:22:02.095Z,99312.03
2023-03-21T12:26:14.002Z,99300.50
2023-03-21T12:30:32.898Z,99289.97
2023-03-21T12:35:09.294Z,99286.13
2023-03-21T12:39:25.329Z,99280.19
2023-03-21T12:43:41.798Z,99280.25
2023-03-21T12:47:47.174Z,99274.41
2023-03-21T12:51:54.856Z,99272.53
2023-03-21T12:56:01.257Z,99272.53
2023-03-21T13:00:10.374Z,99267.84
2023-03-21T13:04:32.977Z,99257.91
2023-03-21T13:08:38.475Z,99257.03
2023-03-21T13:12:56.942Z,99247.13
2023-03-21T13:17:06.795Z,99244.91
2023-03-21T13:21:15.484Z,99234.44
2023-03-21T13:25:19.364Z,99234.22
2023-03-21T13:29:24.332Z,99225.59
2023-03-21T13:33:29.597Z,99221.75
2023-03-21T13:37:33.764Z,99220.16
2023-03-21T13:41:37.826Z,99215.97
2023-03-21T13:45:46.128Z,99216.72
2023-03-21T13:50:22.110Z,99208.97
2023-03-21T13:54:28.367Z,99205.38
2023-03-21T13:58:34.851Z,99205.91
2023-03-21T14:02:38.909Z,99202.53
2023-03-21T14:06:51.129Z,99202.09
2023-03-21T14:10:56.194Z,99201.28
2023-03-21T14:15:14.125Z,99192.47
2023-03-21T14:19:18.566Z,99196.13
2023-03-21T14:23:22.508Z,99176.00
2023-03-21T14:27:29.433Z,99169.84
2023-03-21T14:31:32.170Z,99161.63
2023-03-21T14:35:33.795Z,99151.06
2023-03-21T14:39:36.602Z,99158.13
2023-03-21T14:43:38.046Z,99142.63
2023-03-21T14:47:39.511Z,99142.00
2023-03-21T14:51:41.217Z,99148.56
2023-03-21T14:55:47.672Z,99143.44
2023-03-21T14:59:52.315Z,99138.53
2023-03-21T15:03:53.861Z,99134.97
2023-03-21T15:07:58.106Z,99129.75
2023-03-21T15:12:07.198Z,99130.59
2023-03-21T15:16:11.106Z,99128.69
2023-03-21T15:20:14.554Z,99125.69
2023-03-21T15:24:20.314Z,99126.56
2023-03-21T15:28:25.040Z,99126.84
2023-03-21T15:32:28.285Z,99126.88
2023-03-21T15:36:34.613Z,99121.91
2023-03-21T15:40:36.223Z,99123.31
2023-03-21T15:44:45.764Z,99123.88
2023-03-21T15:48:47.207Z,99118.09
2023-03-21T15:52:49.906Z,99122.19
2023-03-21T15:56:53.908Z,99113.94
2023-03-21T16:01:02.482Z,99113.38
2023-03-21T16:05:22.386Z,99111.16
2023-03-21T16:09:23.995Z,99110.13
2023-03-21T16:13:25.408Z,99109.53
2023-03-21T16:17:33.054Z,99099.03
2023-03-21T16:21:34.994Z,99101.16
2023-03-21T16:25:36.610Z,99107.13
2023-03-21T16:29:38.013Z,99101.56
2023-03-21T16:33:40.824Z,99103.72
2023-03-21T16:37:42.977Z,99104.28
2023-03-21T16:41:44.694Z,99093.81
2023-03-21T16:45:46.192Z,99096.56
2023-03-21T16:49:49.221Z,99103.94
2023-03-21T16:53:50.640Z,99097.81
2023-03-21T16:57:52.916Z,99101.88
2023-03-21T17:01:54.345Z,99109.84
2023-03-21T17:05:57.132Z,99108.69
2023-03-21T17:09:58.607Z,99108.97
2023-03-21T17:14:00.057Z,99107.00
2023-03-21T17:18:01.736Z,99109.47
2023-03-21T17:22:04.598Z,99109.72
2023-03-21T17:26:06.260Z,99097.06
2023-03-21T17:30:19.280Z,99100.84
2023-03-21T17:34:20.734Z,99092.34
2023-03-21T17:38:23.532Z,99094.53
2023-03-21T17:42:25.090Z,99095.59
2023-03-21T17:46:27.638Z,99092.03
2023-03-21T17:50:32.946Z,99089.50
2023-03-21T17:54:35.676Z,99087.84
2023-03-21T17:58:37.091Z,99087.28
2023-03-21T18:02:39.336Z,99096.56
2023-03-21T18:06:40.756Z,99086.63
2023-03-21T18:10:43.526Z,99088.53
2023-03-21T18:14:44.941Z,99085.00
2023-03-21T18:18:46.690Z,99062.75
2023-03-21T18:22:49.047Z,99080.03
2023-03-21T18:26:51.831Z,99090.19
2023-03-21T18:31:14.389Z,99090.69
2023-03-21T18:35:16.224Z,99085.19
2023-03-21T18:39:17.643Z,99082.72
2023-03-21T18:47:41.842Z,99085.03
2023-03-21T18:51:43.340Z,99088.00
2023-03-21T18:55:46.818Z,99094.03
2023-03-21T18:59:50.446Z,99090.19
2023-03-21T19:04:15.382Z,99088.03
2023-03-21T19:08:13.237Z,99081.13
2023-03-21T19:12:14.633Z,99080.19
2023-03-21T19:16:17.971Z,99082.88
2023-03-21T19:20:19.987Z,99085.63
2023-03-21T19:24:27.788Z,99084.53
2023-03-21T19:28:30.112Z,99087.84
2023-03-21T19:32:33.219Z,99088.38
2023-03-21T19:36:34.952Z,99088.53
2023-03-21T19:40:39.003Z,99086.16
2023-03-21T19:44:40.605Z,99081.50
2023-03-21T19:48:44.848Z,99080.47
2023-03-21T19:52:46.366Z,99074.69
2023-03-21T19:56:48.341Z,99083.47
2023-03-21T20:00:50.005Z,99087.81
2023-03-21T20:04:52.844Z,99083.00
2023-03-21T20:13:16.239Z,99087.28
2023-03-21T20:17:17.667Z,99093.72
2023-03-21T20:21:25.402Z,99081.94
2023-03-21T20:25:27.339Z,99087.03
2023-03-21T20:30:07.594Z,99088.75
2023-03-21T20:33:50.878Z,99088.13
2023-03-21T20:37:53.667Z,99093.09
2023-03-21T20:41:55.071Z,99093.88
2023-03-21T20:46:00.253Z,99079.84
2023-03-21T20:50:01.822Z,99098.06
2023-03-21T20:54:04.997Z,99098.72
2023-03-21T20:58:26.779Z,99097.75
2023-03-21T21:02:27.847Z,99099.91
2023-03-21T21:06:29.375Z,99106.00
2023-03-21T21:10:33.466Z,99108.53
2023-03-21T21:14:35.941Z,99109.84
2023-03-21T21:18:38.077Z,99112.59
2023-03-21T21:22:40.229Z,99107.06
2023-03-21T21:26:43.749Z,99106.00
2023-03-21T21:30:45.575Z,99109.03
2023-03-21T21:34:47.143Z,99121.44
2023-03-21T21:38:48.589Z,99126.81
2023-03-21T21:42:51.484Z,99124.84
2023-03-21T21:46:52.898Z,99127.84
2023-03-21T21:50:54.400Z,99120.81
2023-03-21T21:54:55.807Z,99123.50
2023-03-21T21:58:59.152Z,99122.88
2023-03-21T22:03:01.761Z,99132.06
2023-03-21T22:07:03.218Z,99134.63
2023-03-21T22:11:05.704Z,99136.66
2023-03-21T22:15:09.843Z,99134.19
2023-03-21T22:19:11.283Z,99133.63
2023-03-21T22:23:12.934Z,99132.41
2023-03-21T22:27:14.350Z,99134.75
2023-03-21T22:31:17.259Z,99135.59
2023-03-21T22:35:18.954Z,99144.81
2023-03-21T22:39:21.055Z,99140.41
2023-03-21T22:43:22.513Z,99136.28
2023-03-21T22:47:25.380Z,99129.34
2023-03-21T22:51:26.883Z,99131.41
2023-03-21T22:55:28.331Z,99131.97
2023-03-21T22:59:30.123Z,99127.03
2023-03-21T23:03:32.870Z,99131.31
2023-03-21T23:07:34.401Z,99127.44
2023-03-21T23:11:36.148Z,99120.81
2023-03-21T23:15:37.734Z,99118.06
2023-03-21T23:19:41.191Z,99108.94
2023-03-21T23:23:43.936Z,99115.50
2023-03-21T23:27:45.356Z,99116.84
2023-03-21T23:31:46.910Z,99122.47
2023-03-21T23:35:49.707Z,99113.97
2023-03-21T23:44:00.147Z,99107.16
2023-03-21T23:48:01.657Z,99104.66
2023-03-21T23:52:04.806Z,99113.44
2023-03-21T23:56:10.686Z,99107.31
